Time;durP1;ratioP1;P1;durP2;ratioP2;P2;SDS_P1;SDS_P2;PMS_P1;PMS_P2;Temp;Humidity;BMP_temperature;BMP_pressure;BME280_temperature;BME280_humidity;BME280_pressure;Samples;Min_cycle;Max_cycle;Signal;HPM_P1;HPM_P2
2024/02/23 00:00:18;;;;;;;;;;;;;;;-146.32;100.00;63746.28;4153158;28;20016;-69
2024/02/23 00:02:20;;;;;;;;;;;;;;;-146.32;100.00;63746.28;4153545;28;20023;-70
2024/02/23 00:04:22;;;;;;;;;;;;;;;-146.32;100.00;63746.28;4153556;28;20012;-70
2024/02/23 00:06:27;;;;;;;;;;;;;;;-146.32;100.00;63746.28;4153528;28;20036;-70
2024/02/23 00:08:29;;;;;;;;;;;;;;;-146.32;100.00;63746.28;4154851;28;20020;-70
2024/02/23 00:10:31;;;;;;;;;;;;;;;-146.32;100.00;63746.28;4153019;28;20028;-70
2024/02/23 00:12:32;;;;;;;;;;;;;;;-146.32;100.00;63746.28;4152900;28;20023;-70
2024/02/23 00:14:36;;;;;;;;;;;;;;;-146.32;100.00;63746.28;4152856;28;20949;-70
2024/02/23 00:16:42;;;;;;;;;;;;;;;-146.32;100.00;63746.28;4153506;28;20016;-69
2024/02/23 00:18:44;;;;;;;;;;;;;;;-146.32;100.00;63746.28;4154027;28;20029;-70
2024/02/23 00:20:46;;;;;;;;;;;;;;;-146.32;100.00;63746.28;4152152;28;20008;-70
2024/02/23 00:22:48;;;;;;;;;;;;;;;-146.32;100.00;63746.28;4153030;28;20027;-70
2024/02/23 00:24:50;;;;;;;;;;;;;;;-146.32;100.00;63746.28;4154485;28;20023;-69
2024/02/23 00:26:51;;;;;;;;;;;;;;;-146.32;100.00;63746.28;4153815;28;20406;-70
2024/02/23 00:28:53;;;;;;;;;;;;;;;-146.32;100.00;63746.28;4136573;28;20020;-70
2024/02/23 00:30:55;;;;;;;;;;;;;;;-146.32;100.00;63746.28;4154658;28;20056;-70
2024/02/23 00:32:58;;;;;;;;;;;;;;;-146.32;100.00;63746.28;4153857;28;20494;-70
2024/02/23 00:35:00;;;;;;;;;;;;;;;-146.32;100.00;63746.28;4154578;28;20024;-70
2024/02/23 00:37:03;;;;;;;;;;;;;;;-146.32;100.00;63746.28;4153557;28;20017;-70
2024/02/23 00:39:04;;;;;;;;;;;;;;;-146.32;100.00;63746.28;4154090;28;20024;-70
2024/02/23 00:41:06;;;;;;;;;;;;;;;-146.32;100.00;63746.28;4154242;28;20363;-70
2024/02/23 00:43:08;;;;;;;;;;;;;;;-146.32;100.00;63746.28;4154429;28;20047;-70
2024/02/23 00:45:10;;;;;;;;;;;;;;;-146.32;100.00;63746.28;4154185;28;20370;-69
2024/02/23 00:47:12;;;;;;;;;;;;;;;-146.32;100.00;63746.28;4153430;28;20359;-70
2024/02/23 00:49:16;;;;;;;;;;;;;;;-146.32;100.00;63746.28;4153961;28;20031;-70
2024/02/23 00:51:18;;;;;;;;;;;;;;;-146.32;100.00;63746.28;4153365;28;20015;-69
2024/02/23 00:53:21;;;;;;;;;;;;;;;-146.32;100.00;63746.28;4154130;28;20454;-70
2024/02/23 00:55:25;;;;;;;;;;;;;;;-146.32;100.00;63746.28;4153046;28;20025;-70
2024/02/23 00:57:29;;;;;;;;;;;;;;;-146.32;100.00;63746.28;4153684;28;20019;-70
2024/02/23 00:59:31;;;;;;;;;;;;;;;-146.32;100.00;63746.28;4152662;28;20016;-69
2024/02/23 01:01:33;;;;;;;;;;;;;;;-146.32;100.00;63746.28;4154221;28;20426;-70
2024/02/23 01:03:35;;;;;;;;;;;;;;;-146.32;100.00;63746.28;4154174;28;20028;-70
2024/02/23 01:05:39;;;;;;;;;;;;;;;-146.32;100.00;63746.28;4153966;28;20493;-69
2024/02/23 01:07:41;;;;;;;;;;;;;;;-146.32;100.00;63746.28;4154294;28;20036;-70
2024/02/23 01:09:43;;;;;;;;;;;;;;;-146.32;100.00;63746.28;4154435;28;20630;-70
2024/02/23 01:11:45;;;;;;;;;;;;;;;-146.32;100.00;63746.28;4152186;28;20028;-70
2024/02/23 01:13:47;;;;;;;;;;;;;;;-146.32;100.00;63746.28;4154123;28;20442;-70
2024/02/23 01:15:49;;;;;;;;;;;;;;;-146.32;100.00;63746.28;4153764;28;20017;-70
2024/02/23 01:17:50;;;;;;;;;;;;;;;-146.32;100.00;63746.28;4153058;28;20020;-70
2024/02/23 01:19:52;;;;;;;;;;;;;;;-146.32;100.00;63746.28;4153867;28;19979;-70
2024/02/23 01:21:59;;;;;;;;;;;;;;;-146.32;100.00;63746.28;4153407;28;20008;-70
2024/02/23 01:24:01;;;;;;;;;;;;;;;-146.32;100.00;63746.28;4154054;28;20451;-71
2024/02/23 01:26:03;;;;;;;;;;;;;;;-146.32;100.00;63746.28;4154003;28;20020;-70
2024/02/23 01:28:05;;;;;;;;;;;;;;;-146.32;100.00;63746.28;4153151;28;20056;-70
2024/02/23 01:30:08;;;;;;;;;;;;;;;-146.32;100.00;63746.28;4153295;28;20008;-70
2024/02/23 01:32:10;;;;;;;;;;;;;;;-146.32;100.00;63746.28;4153945;28;20434;-70
2024/02/23 01:34:11;;;;;;;;;;;;;;;-146.32;100.00;63746.28;4154135;28;20029;-70
2024/02/23 01:36:13;;;;;;;;;;;;;;;-146.32;100.00;63746.28;4155430;28;20020;-70
2024/02/23 01:38:20;;;;;;;;;;;;;;;-146.32;100.00;63746.28;4156469;28;20377;-70
2024/02/23 01:40:21;;;;;;;;;;;;;;;-146.32;100.00;63746.28;4156880;28;20012;-70
2024/02/23 01:42:23;;;;;;;;;;;;;;;-146.32;100.00;63746.28;4157426;28;20394;-70
2024/02/23 01:44:25;;;;;;;;;;;;;;;-146.32;100.00;63746.28;4156785;28;19993;-70
2024/02/23 01:46:27;;;;;;;;;;;;;;;-146.32;100.00;63746.28;4154559;28;20016;-70
2024/02/23 01:48:29;;;;;;;;;;;;;;;-146.32;100.00;63746.28;4156754;28;20011;-70
2024/02/23 01:50:31;;;;;;;;;;;;;;;-146.32;100.00;63746.28;4156669;28;20015;-70
2024/02/23 01:52:33;;;;;;;;;;;;;;;-146.32;100.00;63746.28;4155948;28;20011;-70
2024/02/23 01:54:37;;;;;;;;;;;;;;;-146.32;100.00;63746.28;4156975;28;20037;-70
2024/02/23 01:56:39;;;;;;;;;;;;;;;-146.32;100.00;63746.28;4155900;28;20044;-70
2024/02/23 01:58:40;;;;;;;;;;;;;;;-146.32;100.00;63746.28;4153894;28;20391;-70
2024/02/23 02:00:42;;;;;;;;;;;;;;;-146.32;100.00;63746.28;4156057;28;19930;-70
2024/02/23 02:02:44;;;;;;;;;;;;;;;-146.32;100.00;63746.28;4156765;28;20012;-70
2024/02/23 02:04:46;;;;;;;;;;;;;;;-146.32;100.00;63746.28;4155404;28;20024;-70
2024/02/23 02:06:48;;;;;;;;;;;;;;;-146.32;100.00;63746.28;4156463;28;20029;-70
2024/02/23 02:08:50;;;;;;;;;;;;;;;-146.32;100.00;63746.28;4157151;28;20023;-70
2024/02/23 02:10:53;;;;;;;;;;;;;;;-146.32;100.00;63746.28;4156334;28;20011;-69
2024/02/23 02:12:54;;;;;;;;;;;;;;;-146.32;100.00;63746.28;4155945;28;20008;-69
2024/02/23 02:14:56;;;;;;;;;;;;;;;-146.32;100.00;63746.28;4156151;28;20037;-70
2024/02/23 02:16:58;;;;;;;;;;;;;;;-146.32;100.00;63746.28;4156115;28;20470;-69
2024/02/23 02:19:00;;;;;;;;;;;;;;;-146.32;100.00;63746.28;4156225;28;20473;-70
2024/02/23 02:21:02;;;;;;;;;;;;;;;-146.32;100.00;63746.28;4155095;28;20020;-70
2024/02/23 02:23:07;;;;;;;;;;;;;;;-146.32;100.00;63746.28;4156294;28;20451;-69
2024/02/23 02:25:09;;;;;;;;;;;;;;;-146.32;100.00;63746.28;4156224;28;20019;-69
2024/02/23 02:27:12;;;;;;;;;;;;;;;-146.32;100.00;63746.28;4156315;28;20015;-70
2024/02/23 02:29:14;;;;;;;;;;;;;;;-146.32;100.00;63746.28;4156115;28;20368;-70
2024/02/23 02:31:16;;;;;;;;;;;;;;;-146.32;100.00;63746.28;4155580;28;20029;-70
2024/02/23 02:33:18;;;;;;;;;;;;;;;-146.32;100.00;63746.28;4156403;28;20342;-70
2024/02/23 02:35:20;;;;;;;;;;;;;;;-146.32;100.00;63746.28;4144743;28;20028;-70
2024/02/23 02:37:22;;;;;;;;;;;;;;;-146.32;100.00;63746.28;4155487;28;20035;-69
2024/02/23 02:39:24;;;;;;;;;;;;;;;-146.32;100.00;63746.28;4156429;28;20020;-69
2024/02/23 02:41:28;;;;;;;;;;;;;;;-146.32;100.00;63746.28;4139088;28;20024;-70
2024/02/23 02:43:31;;;;;;;;;;;;;;;-146.32;100.00;63746.28;4156291;28;20024;-69
2024/02/23 02:45:33;;;;;;;;;;;;;;;-146.32;100.00;63746.28;4155103;28;20444;-70
2024/02/23 02:47:36;;;;;;;;;;;;;;;-146.32;100.00;63746.28;4155889;28;20031;-70
2024/02/23 02:49:40;;;;;;;;;;;;;;;-146.32;100.00;63746.28;4155845;28;20013;-70
2024/02/23 02:51:42;;;;;;;;;;;;;;;-146.32;100.00;63746.28;4155801;28;20049;-70
2024/02/23 02:53:43;;;;;;;;;;;;;;;-146.32;100.00;63746.28;4155469;28;20004;-70
2024/02/23 02:55:45;;;;;;;;;;;;;;;-146.32;100.00;63746.28;4155725;28;19948;-70
2024/02/23 02:57:47;;;;;;;;;;;;;;;-146.32;100.00;63746.28;4154124;28;20027;-70
2024/02/23 02:59:50;;;;;;;;;;;;;;;-146.32;100.00;63746.28;4156084;28;20454;-70
2024/02/23 03:01:52;;;;;;;;;;;;;;;-146.32;100.00;63746.28;4154265;28;20032;-70
2024/02/23 03:03:54;;;;;;;;;;;;;;;-146.32;100.00;63746.28;4155110;28;20011;-70
2024/02/23 03:05:56;;;;;;;;;;;;;;;-146.32;100.00;63746.28;4155425;28;20024;-70
2024/02/23 03:07:58;;;;;;;;;;;;;;;-146.32;100.00;63746.28;4138110;28;20024;-70
2024/02/23 03:10:00;;;;;;;;;;;;;;;-146.32;100.00;63746.28;4155759;28;20012;-70
2024/02/23 03:12:02;;;;;;;;;;;;;;;-146.32;100.00;63746.28;4154712;28;20020;-70
2024/02/23 03:14:04;;;;;;;;;;;;;;;-146.32;100.00;63746.28;4155580;28;20419;-70
2024/02/23 03:16:08;;;;;;;;;;;;;;;-146.32;100.00;63746.28;4155179;28;20028;-70
2024/02/23 03:18:10;;;;;;;;;;;;;;;-146.32;100.00;63746.28;4154230;28;20478;-70
2024/02/23 03:20:11;;;;;;;;;;;;;;;-146.32;100.00;63746.28;4154754;28;20462;-70
2024/02/23 03:22:13;;;;;;;;;;;;;;;-146.32;100.00;63746.28;4153906;28;20020;-70
2024/02/23 03:24:14;;;;;;;;;;;;;;;-146.32;100.00;63746.28;4155594;28;20541;-70
2024/02/23 03:26:17;;;;;;;;;;;;;;;-146.32;100.00;63746.28;4155390;28;19933;-70
2024/02/23 03:28:18;;;;;;;;;;;;;;;-146.32;100.00;63746.28;4154922;28;20023;-70
2024/02/23 03:30:21;;;;;;;;;;;;;;;-146.32;100.00;63746.28;4155601;28;20019;-70
2024/02/23 03:32:24;;;;;;;;;;;;;;;-146.32;100.00;63746.28;4154482;28;20004;-70
2024/02/23 03:34:26;;;;;;;;;;;;;;;-146.32;100.00;63746.28;4155117;28;20031;-70
2024/02/23 03:36:27;;;;;;;;;;;;;;;-146.32;100.00;63746.28;4136925;28;20017;-71
2024/02/23 03:38:29;;;;;;;;;;;;;;;-146.32;100.00;63746.28;4155646;28;19933;-71
2024/02/23 03:40:32;;;;;;;;;;;;;;;-146.32;100.00;63746.28;4154977;28;20013;-71
2024/02/23 03:42:34;;;;;;;;;;;;;;;-146.32;100.00;63746.28;4155350;28;20016;-71
2024/02/23 03:44:36;;;;;;;;;;;;;;;-146.32;100.00;63746.28;4155051;28;20016;-71
2024/02/23 03:46:38;;;;;;;;;;;;;;;-146.32;100.00;63746.28;4154876;28;20031;-71
2024/02/23 03:48:40;;;;;;;;;;;;;;;-146.32;100.00;63746.28;4155182;28;20024;-71
2024/02/23 03:50:42;;;;;;;;;;;;;;;-146.32;100.00;63746.28;4154112;28;20019;-71
2024/02/23 03:52:44;;;;;;;;;;;;;;;-146.32;100.00;63746.28;4156016;28;20008;-71
2024/02/23 03:54:46;;;;;;;;;;;;;;;-146.32;100.00;63746.28;4155358;28;20404;-71
2024/02/23 03:56:47;;;;;;;;;;;;;;;-146.32;100.00;63746.28;4154713;28;20021;-71
2024/02/23 03:58:49;;;;;;;;;;;;;;;-146.32;100.00;63746.28;4154491;28;19933;-70
2024/02/23 04:00:51;;;;;;;;;;;;;;;-146.32;100.00;63746.28;4154217;28;20020;-70
2024/02/23 04:02:53;;;;;;;;;;;;;;;-146.32;100.00;63746.28;4154240;28;20033;-70
2024/02/23 04:04:56;;;;;;;;;;;;;;;-146.32;100.00;63746.28;4155112;28;20020;-70
2024/02/23 04:06:57;;;;;;;;;;;;;;;-146.32;100.00;63746.28;4154879;28;20023;-71
2024/02/23 04:08:59;;;;;;;;;;;;;;;-146.32;100.00;63746.28;4154598;28;19933;-71
2024/02/23 04:11:00;;;;;;;;;;;;;;;-146.32;100.00;63746.28;4154804;28;20012;-70
2024/02/23 04:13:02;;;;;;;;;;;;;;;-146.32;100.00;63746.28;4154993;28;20307;-70
2024/02/23 04:15:05;;;;;;;;;;;;;;;-146.32;100.00;63746.28;4154541;28;20331;-71
2024/02/23 04:17:06;;;;;;;;;;;;;;;-146.32;100.00;63746.28;4154606;28;20362;-70
2024/02/23 04:19:08;;;;;;;;;;;;;;;-146.32;100.00;63746.28;4154645;28;20040;-70
2024/02/23 04:21:12;;;;;;;;;;;;;;;-146.32;100.00;63746.28;4154187;28;20020;-71
2024/02/23 04:23:14;;;;;;;;;;;;;;;-146.32;100.00;63746.28;4154597;28;20024;-70
2024/02/23 04:25:15;;;;;;;;;;;;;;;-146.32;100.00;63746.28;4154422;28;20020;-71
2024/02/23 04:27:17;;;;;;;;;;;;;;;-146.32;100.00;63746.28;4154534;28;19973;-71
2024/02/23 04:29:19;;;;;;;;;;;;;;;-146.32;100.00;63746.28;4154235;28;20052;-70
2024/02/23 04:31:21;;;;;;;;;;;;;;;-146.32;100.00;63746.28;4153262;28;20024;-71
2024/02/23 04:33:23;;;;;;;;;;;;;;;-146.32;100.00;63746.28;4153140;28;20021;-70
2024/02/23 04:35:26;;;;;;;;;;;;;;;-146.32;100.00;63746.28;4153975;28;20008;-71
2024/02/23 04:37:29;;;;;;;;;;;;;;;-146.32;100.00;63746.28;4153952;28;20016;-71
2024/02/23 04:39:31;;;;;;;;;;;;;;;-146.32;100.00;63746.28;4154905;28;20029;-70
2024/02/23 04:41:33;;;;;;;;;;;;;;;-146.32;100.00;63746.28;4153223;28;20335;-71
2024/02/23 04:43:35;;;;;;;;;;;;;;;-146.32;100.00;63746.28;4153401;28;20016;-70
2024/02/23 04:45:37;;;;;;;;;;;;;;;-146.32;100.00;63746.28;4153966;28;20024;-71
2024/02/23 04:47:40;;;;;;;;;;;;;;;-146.32;100.00;63746.28;4153681;28;20438;-70
2024/02/23 04:49:42;;;;;;;;;;;;;;;-146.32;100.00;63746.28;4154545;28;20004;-70
2024/02/23 04:51:44;;;;;;;;;;;;;;;-146.32;100.00;63746.28;4153748;28;20027;-71
2024/02/23 04:53:48;;;;;;;;;;;;;;;-146.32;100.00;63746.28;4153540;28;20209;-70
2024/02/23 04:55:50;;;;;;;;;;;;;;;-146.32;100.00;63746.28;4154431;28;20028;-71
2024/02/23 04:57:52;;;;;;;;;;;;;;;-146.32;100.00;63746.28;4153355;28;20020;-71
2024/02/23 04:59:54;;;;;;;;;;;;;;;-146.32;100.00;63746.28;4153582;28;20470;-71
2024/02/23 05:01:56;;;;;;;;;;;;;;;-146.32;100.00;63746.28;4153670;28;20028;-71
2024/02/23 05:03:58;;;;;;;;;;;;;;;-146.32;100.00;63746.28;4154391;28;20028;-70
2024/02/23 05:05:59;;;;;;;;;;;;;;;-146.32;100.00;63746.28;4153680;28;20011;-71
2024/02/23 05:08:00;;;;;;;;;;;;;;;-146.32;100.00;63746.28;4154513;28;20059;-71
2024/02/23 05:10:04;;;;;;;;;;;;;;;-146.32;100.00;63746.28;4156580;28;20391;-71
2024/02/23 05:12:07;;;;;;;;;;;;;;;-146.32;100.00;63746.28;4149339;28;20023;-71
2024/02/23 05:14:09;;;;;;;;;;;;;;;-146.32;100.00;63746.28;4156616;28;20024;-70
2024/02/23 05:16:12;;;;;;;;;;;;;;;-146.32;100.00;63746.28;4157184;28;20031;-70
2024/02/23 05:18:14;;;;;;;;;;;;;;;-146.32;100.00;63746.28;4157785;28;20446;-70
2024/02/23 05:20:16;;;;;;;;;;;;;;;-146.32;100.00;63746.28;4156512;28;20023;-71
2024/02/23 05:22:20;;;;;;;;;;;;;;;-146.32;100.00;63746.28;4157569;28;20011;-71
2024/02/23 05:24:22;;;;;;;;;;;;;;;-146.32;100.00;63746.28;4156700;28;20016;-70
2024/02/23 05:26:25;;;;;;;;;;;;;;;-146.32;100.00;63746.28;4155744;28;20389;-71
2024/02/23 05:28:27;;;;;;;;;;;;;;;-146.32;100.00;63746.28;4157331;28;20032;-70
2024/02/23 05:30:31;;;;;;;;;;;;;;;-146.32;100.00;63746.28;4156855;28;20024;-71
2024/02/23 05:32:33;;;;;;;;;;;;;;;-146.32;100.00;63746.28;4157242;28;19991;-72
2024/02/23 05:34:36;;;;;;;;;;;;;;;-146.32;100.00;63746.28;4156624;28;20048;-71
2024/02/23 05:36:38;;;;;;;;;;;;;;;-146.32;100.00;63746.28;4157362;28;20401;-70
2024/02/23 05:38:40;;;;;;;;;;;;;;;-146.32;100.00;63746.28;4157598;28;20427;-71
2024/02/23 05:40:41;;;;;;;;;;;;;;;-146.32;100.00;63746.28;4157370;28;20020;-70
2024/02/23 05:42:45;;;;;;;;;;;;;;;-146.32;100.00;63746.28;4156195;28;20469;-71
2024/02/23 05:44:48;;;;;;;;;;;;;;;-146.32;100.00;63746.28;4156828;28;20024;-71
2024/02/23 05:46:50;;;;;;;;;;;;;;;-146.32;100.00;63746.28;4156695;28;20031;-71
2024/02/23 05:48:51;;;;;;;;;;;;;;;-146.32;100.00;63746.28;4156863;28;20012;-71
2024/02/23 05:50:53;;;;;;;;;;;;;;;-146.32;100.00;63746.28;4156239;28;20019;-71
2024/02/23 05:52:55;;;;;;;;;;;;;;;-146.32;100.00;63746.28;4156664;28;20008;-72
2024/02/23 05:54:56;;;;;;;;;;;;;;;-146.32;100.00;63746.28;4145660;28;20023;-71
2024/02/23 05:56:59;;;;;;;;;;;;;;;-146.32;100.00;63746.28;4156747;28;19956;-71
2024/02/23 05:59:02;;;;;;;;;;;;;;;-146.32;100.00;63746.28;4155863;28;20013;-72
2024/02/23 06:01:04;;;;;;;;;;;;;;;-146.32;100.00;63746.28;4156587;28;20028;-70
2024/02/23 06:03:06;;;;;;;;;;;;;;;-146.32;100.00;63746.28;4156693;28;20032;-71
2024/02/23 06:05:08;;;;;;;;;;;;;;;-146.32;100.00;63746.28;4156616;28;20080;-70
2024/02/23 06:07:11;;;;;;;;;;;;;;;-146.32;100.00;63746.28;4155735;28;20024;-69
2024/02/23 06:09:12;;;;;;;;;;;;;;;-146.32;100.00;63746.28;4155553;28;20021;-69
2024/02/23 06:11:14;;;;;;;;;;;;;;;-146.32;100.00;63746.28;4155514;28;20036;-69
2024/02/23 06:13:17;;;;;;;;;;;;;;;-146.32;100.00;63746.28;4155734;28;20551;-70
2024/02/23 06:15:20;;;;;;;;;;;;;;;-146.32;100.00;63746.28;4155125;28;20043;-70
2024/02/23 06:17:22;;;;;;;;;;;;;;;-146.32;100.00;63746.28;4155334;28;20021;-71
2024/02/23 06:19:24;;;;;;;;;;;;;;;-146.32;100.00;63746.28;4154352;28;20020;-71
2024/02/23 06:21:26;;;;;;;;;;;;;;;-146.32;100.00;63746.28;4154371;28;20458;-70
2024/02/23 06:23:29;;;;;;;;;;;;;;;-146.32;100.00;63746.28;4155960;28;20031;-70
2024/02/23 06:25:31;;;;;;;;;;;;;;;-146.32;100.00;63746.28;4155494;28;20092;-70
2024/02/23 06:27:33;;;;;;;;;;;;;;;-146.32;100.00;63746.28;4155034;28;20016;-72
2024/02/23 06:29:35;;;;;;;;;;;;;;;-146.32;100.00;63746.28;4155228;28;20020;-71
2024/02/23 06:31:38;;;;;;;;;;;;;;;-146.32;100.00;63746.28;4152469;28;20085;-70
2024/02/23 06:33:40;;;;;;;;;;;;;;;-146.32;100.00;63746.28;4155803;28;20394;-71
2024/02/23 06:35:42;;;;;;;;;;;;;;;-146.32;100.00;63746.28;4155514;28;20351;-70
2024/02/23 06:37:45;;;;;;;;;;;;;;;-146.32;100.00;63746.28;4156535;28;20079;-70
2024/02/23 06:39:51;;;;;;;;;;;;;;;-146.32;100.00;63746.28;4156801;28;20459;-70
2024/02/23 06:41:53;;;;;;;;;;;;;;;-146.32;100.00;63746.28;4138711;28;20011;-70
2024/02/23 06:43:55;;;;;;;;;;;;;;;-146.32;100.00;63746.28;4155307;28;20454;-71
2024/02/23 06:45:57;;;;;;;;;;;;;;;-146.32;100.00;63746.28;4155339;28;20024;-70
2024/02/23 06:48:00;;;;;;;;;;;;;;;-146.32;100.00;63746.28;4154563;28;20374;-69
2024/02/23 06:50:03;;;;;;;;;;;;;;;-146.32;100.00;63746.28;4154572;28;19988;-70
2024/02/23 06:52:04;;;;;;;;;;;;;;;-146.32;100.00;63746.28;4154965;28;20037;-70
2024/02/23 06:54:07;;;;;;;;;;;;;;;-146.32;100.00;63746.28;4155172;28;20031;-70
2024/02/23 06:56:09;;;;;;;;;;;;;;;-146.32;100.00;63746.28;4154963;28;20465;-70
2024/02/23 06:58:13;;;;;;;;;;;;;;;-146.32;100.00;63746.28;4155486;28;20013;-70
2024/02/23 07:00:15;;;;;;;;;;;;;;;-146.32;100.00;63746.28;4155149;28;20023;-71
2024/02/23 07:02:18;;;;;;;;;;;;;;;-146.32;100.00;63746.28;4154885;28;20031;-70
2024/02/23 07:04:21;;;;;;;;;;;;;;;-146.32;100.00;63746.28;4155314;28;20016;-70
2024/02/23 07:06:23;;;;;;;;;;;;;;;-146.32;100.00;63746.28;4155608;28;20033;-70
2024/02/23 07:08:25;;;;;;;;;;;;;;;-146.32;100.00;63746.28;4155300;28;20024;-70
2024/02/23 07:10:27;;;;;;;;;;;;;;;-146.32;100.00;63746.28;4138795;28;19933;-71
2024/02/23 07:12:29;;;;;;;;;;;;;;;-146.32;100.00;63746.28;4153473;28;20454;-70
2024/02/23 07:14:31;;;;;;;;;;;;;;;-146.32;100.00;63746.28;4154294;28;20028;-70
2024/02/23 07:16:33;;;;;;;;;;;;;;;-146.32;100.00;63746.28;4156295;28;20369;-69
2024/02/23 07:18:35;;;;;;;;;;;;;;;-146.32;100.00;63746.28;4155796;28;20449;-69
2024/02/23 07:55:05;;;;;;;;;;;;;;;-146.32;100.00;63746.28;2255515;26;19934;-81
2024/02/23 07:57:26;;;;;;;;;;;;;;;-146.32;100.00;63746.28;4137849;28;19933;-82
2024/02/23 07:59:46;;;;;;;;;;;;;;;-146.32;100.00;63746.28;4139564;28;19936;-83
2024/02/23 08:02:07;;;;;;;;;;;;;;;-146.32;100.00;63746.28;4140858;28;20028;-81
2024/02/23 08:04:28;;;;;;;;;;;;;;;-146.32;100.00;63746.28;4141195;28;19976;-82
2024/02/23 08:06:49;;;;;;;;;;;;;;;-146.32;100.00;63746.28;4135186;28;19940;-83
2024/02/23 08:09:10;;;;;;;;;;;;;;;-146.32;100.00;63746.28;4138441;28;19937;-81
2024/02/23 08:11:35;;;;;;;;;;;;;;;-146.32;100.00;63746.28;4152741;28;19932;-83
2024/02/23 08:13:56;;;;;;;;;;;;;;;-146.32;100.00;63746.28;4155256;28;19971;-81
2024/02/23 08:16:17;;;;;;;;;;;;;;;-146.32;100.00;63746.28;4155961;28;19932;-82
2024/02/23 08:18:38;;;;;;;;;;;;;;;-146.32;100.00;63746.28;4155788;28;20464;-83
2024/02/23 08:21:00;;;;;;;;;;;;;;;-146.32;100.00;63746.28;4154714;28;19940;-81
2024/02/23 08:23:22;;;;;;;;;;;;;;;-146.32;100.00;63746.28;4154382;28;19993;-81
2024/02/23 08:25:43;;;;;;;;;;;;;;;-146.32;100.00;63746.28;4154604;28;19983;-83
2024/02/23 08:28:05;;;;;;;;;;;;;;;-146.32;100.00;63746.28;4155264;28;19980;-82
2024/02/23 08:30:29;;;;;;;;;;;;;;;-146.32;100.00;63746.28;4155011;28;20004;-83
2024/02/23 08:32:49;;;;;;;;;;;;;;;-146.32;100.00;63746.28;4156394;28;19936;-82
2024/02/23 08:35:10;;;;;;;;;;;;;;;-146.32;100.00;63746.28;4155869;28;19933;-81
2024/02/23 08:37:30;;;;;;;;;;;;;;;-146.32;100.00;63746.28;4156113;28;20013;-81
2024/02/23 08:39:56;;;;;;;;;;;;;;;-146.32;100.00;63746.28;4156153;28;20013;-83
2024/02/23 08:42:17;;;;;;;;;;;;;;;-146.32;100.00;63746.28;4155558;28;20011;-82
2024/02/23 08:44:40;;;;;;;;;;;;;;;-146.32;100.00;63746.28;4155723;28;19932;-83
2024/02/23 08:47:01;;;;;;;;;;;;;;;-146.32;100.00;63746.28;4154974;28;19979;-83
2024/02/23 08:49:22;;;;;;;;;;;;;;;-146.32;100.00;63746.28;4156201;28;19936;-82
2024/02/23 08:51:43;;;;;;;;;;;;;;;-146.32;100.00;63746.28;4155766;28;19980;-82
2024/02/23 08:54:08;;;;;;;;;;;;;;;-146.32;100.00;63746.28;4155093;28;19932;-81
2024/02/23 08:56:29;;;;;;;;;;;;;;;-146.32;100.00;63746.28;4153201;28;20434;-81
2024/02/23 08:58:53;;;;;;;;;;;;;;;-146.32;100.00;63746.28;4155221;28;19936;-81
2024/02/23 09:01:17;;;;;;;;;;;;;;;-146.32;100.00;63746.28;4154878;28;19937;-83
2024/02/23 09:03:42;;;;;;;;;;;;;;;-146.32;100.00;63746.28;4140641;28;20000;-82
2024/02/23 09:06:06;;;;;;;;;;;;;;;-146.32;100.00;63746.28;4156222;28;19979;-82
2024/02/23 09:08:27;;;;;;;;;;;;;;;-146.32;100.00;63746.28;4146706;28;19933;-82
2024/02/23 09:10:50;;;;;;;;;;;;;;;-146.32;100.00;63746.28;4154742;28;19937;-82
2024/02/23 09:13:11;;;;;;;;;;;;;;;-146.32;100.00;63746.28;4156211;28;19936;-83
2024/02/23 09:15:34;;;;;;;;;;;;;;;-146.32;100.00;63746.28;4154667;28;20009;-82
2024/02/23 09:18:02;;;;;;;;;;;;;;;-146.32;100.00;63746.28;4155479;28;20443;-80
2024/02/23 09:20:23;;;;;;;;;;;;;;;-146.32;100.00;63746.28;4153663;28;19963;-83
2024/02/23 09:22:44;;;;;;;;;;;;;;;-146.32;100.00;63746.28;4157115;28;20011;-82
2024/02/23 09:25:05;;;;;;;;;;;;;;;-146.32;100.00;63746.28;4155622;28;19932;-80
2024/02/23 09:27:26;;;;;;;;;;;;;;;-146.32;100.00;63746.28;4155064;28;20406;-83
2024/02/23 09:29:47;;;;;;;;;;;;;;;-146.32;100.00;63746.28;4159192;28;19932;-81
2024/02/23 09:32:07;;;;;;;;;;;;;;;-146.32;100.00;63746.28;4156325;28;19956;-82
2024/02/23 09:34:30;;;;;;;;;;;;;;;-146.32;100.00;63746.28;4154894;28;19932;-81
2024/02/23 09:36:54;;;;;;;;;;;;;;;-146.32;100.00;63746.28;4155462;28;20331;-80
2024/02/23 09:39:15;;;;;;;;;;;;;;;-146.32;100.00;63746.28;4155690;28;20069;-85
2024/02/23 09:41:36;;;;;;;;;;;;;;;-146.32;100.00;63746.28;4154510;28;19936;-83
2024/02/23 09:43:56;;;;;;;;;;;;;;;-146.32;100.00;63746.28;4155123;28;19937;-84
2024/02/23 09:46:17;;;;;;;;;;;;;;;-146.32;100.00;63746.28;4155849;28;20437;-85
2024/02/23 09:48:39;;;;;;;;;;;;;;;-146.32;100.00;63746.28;4154867;28;20059;-84
2024/02/23 09:51:01;;;;;;;;;;;;;;;-146.32;100.00;63746.28;4138060;28;19936;-85
2024/02/23 09:53:22;;;;;;;;;;;;;;;-146.32;100.00;63746.28;4156880;28;20170;-87
2024/02/23 09:55:43;;;;;;;;;;;;;;;-146.32;100.00;63746.28;4169198;28;19940;-83
2024/02/23 09:58:05;;;;;;;;;;;;;;;-146.32;100.00;63746.28;4174784;28;19936;-84
2024/02/23 10:00:26;;;;;;;;;;;;;;;-146.32;100.00;63746.28;4145411;28;19936;-84
2024/02/23 10:02:47;;;;;;;;;;;;;;;-146.32;100.00;63746.28;4175635;28;20688;-83
2024/02/23 10:05:08;;;;;;;;;;;;;;;-146.32;100.00;63746.28;4175094;28;19932;-83
2024/02/23 10:07:30;;;;;;;;;;;;;;;-146.32;100.00;63746.28;4159895;28;19932;-84
2024/02/23 10:09:51;;;;;;;;;;;;;;;-146.32;100.00;63746.28;4173743;28;19939;-84
2024/02/23 10:12:12;;;;;;;;;;;;;;;-146.32;100.00;63746.28;4174001;28;19936;-84
2024/02/23 10:14:32;;;;;;;;;;;;;;;-146.32;100.00;63746.28;4175380;28;19970;-84
2024/02/23 10:16:55;;;;;;;;;;;;;;;-146.32;100.00;63746.28;4174994;28;19943;-84
2024/02/23 10:19:15;;;;;;;;;;;;;;;-146.32;100.00;63746.28;4175531;28;19931;-85
2024/02/23 10:21:36;;;;;;;;;;;;;;;-146.32;100.00;63746.28;4171386;28;19935;-83
2024/02/23 10:23:58;;;;;;;;;;;;;;;-146.32;100.00;63746.28;4172372;28;19935;-82
2024/02/23 10:26:18;;;;;;;;;;;;;;;-146.32;100.00;63746.28;4174508;28;19935;-83
2024/02/23 10:28:39;;;;;;;;;;;;;;;-146.32;100.00;63746.28;4174730;28;19935;-84
2024/02/23 10:31:01;;;;;;;;;;;;;;;-146.32;100.00;63746.28;4174347;28;19936;-82
2024/02/23 10:33:23;;;;;;;;;;;;;;;-146.32;100.00;63746.28;4159147;28;20391;-84
2024/02/23 10:35:44;;;;;;;;;;;;;;;-146.32;100.00;63746.28;4158690;28;19976;-83
2024/02/23 10:38:06;;;;;;;;;;;;;;;-146.32;100.00;63746.28;4174826;28;19932;-84
2024/02/23 10:40:31;;;;;;;;;;;;;;;-146.32;100.00;63746.28;4174028;28;20748;-81
2024/02/23 10:42:53;;;;;;;;;;;;;;;-146.32;100.00;63746.28;4159664;28;20039;-82
2024/02/23 10:45:14;;;;;;;;;;;;;;;-146.32;100.00;63746.28;4172582;28;19932;-82
2024/02/23 10:47:35;;;;;;;;;;;;;;;-146.32;100.00;63746.28;4172817;28;19932;-82
2024/02/23 10:49:58;;;;;;;;;;;;;;;-146.32;100.00;63746.28;4174147;28;20380;-82
2024/02/23 10:52:19;;;;;;;;;;;;;;;-146.32;100.00;63746.28;4173031;28;20307;-82
2024/02/23 10:54:40;;;;;;;;;;;;;;;-146.32;100.00;63746.28;4174161;28;19931;-83
2024/02/23 10:57:02;;;;;;;;;;;;;;;-146.32;100.00;63746.28;4177357;28;19943;-83
2024/02/23 10:59:23;;;;;;;;;;;;;;;-146.32;100.00;63746.28;4174954;28;20294;-82
2024/02/23 11:01:44;;;;;;;;;;;;;;;-146.32;100.00;63746.28;4174515;28;19936;-82
2024/02/23 11:04:04;;;;;;;;;;;;;;;-146.32;100.00;63746.28;4173903;28;20028;-83
2024/02/23 11:06:28;;;;;;;;;;;;;;;-146.32;100.00;63746.28;4173047;28;20282;-82
2024/02/23 11:08:48;;;;;;;;;;;;;;;-146.32;100.00;63746.28;4175336;28;19994;-82
2024/02/23 11:11:09;;;;;;;;;;;;;;;-146.32;100.00;63746.28;4174218;28;20036;-82
2024/02/23 11:13:37;;;;;;;;;;;;;;;-146.32;100.00;63746.28;4172143;28;20619;-81